Aérodrome :
LOGIN :

S'inscrire | Disclaimer

   EN    FR    IT 

 










Légende :    VFR   VFR Marginal   IFR   IFR Intensif   IFR Très Intensif
Visi : 
Plafond : 
>= 8 km
>= 3000ft
5 à 8 km
1000 à 3000 ft
1500m à 5 km
500 à 1000 ft
800 à 1500m
200 à 500 ft
< 800m
< 200 ft
Symboles :   Orages  Brouillard  Fortes neiges  Fortes précipitations  Vent > 20 kt
SIGMETs :   Divers  Orages  Givrage  Turbulence  Onde Orograph.  Cendres Volcan.







- Altitude de l'aérodrome : 0 ft


ETEB - Ansbach Army Heliport

DERNIER METAR :
  • 191758Z AUTO 26005KT 9999 FEW048 BKN070 17/10 A3014 RMK AO2 SLP211 T01710099 10196 20171 51005

METARs EXPIRÉS :
  • 191658Z AUTO 30005KT 9999 CLR 19/10 A3013 RMK AO2 SLP205 T01870096
  • 191558Z AUTO 27005KT 9999 FEW047 19/09 A3013 RMK AO2 SLP205 T01910094

TAF TAF ETEB
Valide du 18 à 13h jusqu'au 19 à 19h UTC


181302Z 1813/1919 23010G15KT 9999 SCT050 QNH2991INS
BECMG 1814/1815 23015G25KT 8000 -SHRA BKN030 QNH2991INS
TEMPO 1815/1819 23025G35KT 6000 -TSRA BKN010CB
BECMG 1822/1823 27012KT 8000 -SHRA BKN010 QNH3001INS
BECMG 1907/1908 27012KT 9999 NSW SCT020 QNH3006INS TX30/1913Z TN14/1906Z LAST NO AMDS AFT 1813 NEXT 2121
Pas de NOTAMs connus pour ce terrain.



MET'MAP, la Météo Aéronautique d'un coup d'oeil ! - Copyright ORBIFLY Décembre 2007 - Disclaimer

ORBIFLY MET'MAP TEAM :

Programmation & Développement : Alexandra Zaïnal
Conception & Développement : Baudouin d'Aumeries
Co-Programmation & Développement : Marc-Olivier Méhu
Soutien technique & logistique : Manuel Goepfert

Contact : metmap@orbifly.com




SOURCES & CREDITS :

   NOAA